Latest Coastal Weather Observations for Moorabbin Airport

IDV60701

Issued at 1:11 am EST Monday 30 May 2016 (issued every 10 minutes, with the page automatically refreshed every 10 minutes)

About coastal observations | Map of coastal stations | Coastal observations for VIC | Marine services | Other Formats
Station Details ID: 086077 Name: MOORABBIN AIRPORT Lat: -37.98 Lon: 145.10 Height: 12.1 m
Data from the previous 72 hours. | See also: Recent months at Moorabbin Airport
Date/Time
EST
Temp

°C
Wind Pressure Rain
since 9am
mm
Weather Cloud Vis
km
Sea
Height
m
Swell
Dir
 
Speed
knots
Gust
knots
hPa Trend Height
m
Period
s
Dir
30/01:00am 7.8 N 3 5 1023.7 - 0.0 - Cloudy 10 - - - -
30/12:30am 8.6 N 5 6 1023.6 - 0.0 - Cloudy 10 - - - -
30/12:00am 9.5 N 3 4 1023.5 - 0.0 - Mostly cloudy 10 - - - -
 
Date/Time
EST
Temp

°C
Wind Pressure Rain
since 9am
mm
Weather Cloud Vis
km
Sea
Height
m
Swell
Dir
 
Speed
knots
Gust
knots
hPa Trend Height
m
Period
s
Dir
29/11:30pm 9.5 N 3 4 1023.4 - 0.0 - Cloudy 10 - - - -
29/11:00pm 9.6 N 3 5 1023.4 - 0.0 - Cloudy 10 - - - -
29/10:30pm 9.8 CALM 0 0 1023.3 - 0.0 - Partly cloudy 10 - - - -
29/10:00pm 10.6 CALM 0 0 1023.1 - 0.0 - Partly cloudy 10 - - - -
29/09:30pm 11.3 CALM 0 3 1023.1 - 0.0 - Partly cloudy 10 - - - -
29/09:00pm 10.4 NE 3 6 1023.0 - 0.0 - Cloudy 10 - - - -
29/08:30pm 10.9 WNW 3 4 1022.8 - 0.0 - Partly cloudy 10 - - - -
29/08:00pm 10.7 WNW 4 5 1022.6 - 0.0 - Cloudy 10 - - - -
29/07:30pm 10.4 WNW 4 5 1022.2 - 0.0 - Cloudy 10 - - - -
29/07:00pm 10.3 WNW 4 6 1021.9 - 0.0 - Partly cloudy 10 - - - -
29/06:30pm 11.1 W 5 7 1021.6 - 0.0 - Partly cloudy 10 - - - -
29/06:00pm 11.5 WSW 5 7 1021.4 - 0.0 - Mostly cloudy 10 - - - -
29/05:30pm 11.7 W 5 7 1021.1 - 0.0 - Partly cloudy 10 - - - -
29/05:00pm 12.1 W 7 10 1021.1 - 0.0 - Cloudy 10 - - - -
29/04:30pm 12.5 WSW 7 11 1020.9 - 0.0 - Cloudy 10 - - - -
29/04:00pm 12.8 WSW 7 10 1020.8 - 0.0 - Cloudy 10 - - - -
29/03:30pm 12.8 W 7 11 1020.6 - 0.0 - Cloudy 10 - - - -
29/03:00pm 12.6 WNW 8 12 1020.6 - 0.0 - Cloudy 10 - - - -
29/02:30pm 12.7 W 9 13 1020.4 - 0.0 - Cloudy 10 - - - -
29/02:00pm 12.6 WNW 11 16 1020.3 - 0.0 - Cloudy 10 - - - -
29/01:30pm 12.7 W 11 17 1020.2 - 0.0 - Cloudy 10 - - - -
29/01:00pm 12.8 W 12 18 1020.2 - 0.0 - Cloudy 10 - - - -
29/12:30pm 12.9 W 11 17 1020.3 - 0.0 - Cloudy 10 - - - -
29/12:00pm 12.9 W 10 16 1020.3 - 0.0 - Cloudy 10 - - - -
29/11:30am 12.4 W 11 16 1020.4 - 0.0 - Cloudy 10 - - - -
29/11:00am 12.5 W 10 16 1020.5 - 0.0 - Cloudy 10 - - - -
29/10:30am 12.4 W 10 16 1020.3 - 0.0 - Cloudy 10 - - - -
29/10:00am 12.1 W 11 17 1020.1 - 0.0 - Cloudy 10 - - - -
29/09:30am 11.7 W 12 18 1019.8 - 0.0 - Cloudy 10 - - - -
29/09:00am 11.7 W 8 16 1019.5 - 0.4 - Cloudy 10 - - - -
29/08:30am 11.4 W 10 15 1019.0 - 0.4 - Cloudy 10 - - - -
29/08:00am 11.4 W 9 14 1018.7 - 0.4 - Cloudy 10 - - - -
29/07:30am 11.3 W 10 15 1018.4 - 0.4 - Cloudy 10 - - - -
29/07:00am 11.6 W 9 13 1018.3 - 0.4 - Cloudy 10 - - - -
29/06:30am 11.5 W 10 14 1018.0 - 0.4 - Partly cloudy 10 - - - -
29/06:00am 11.3 W 10 15 1017.9 - 0.4 - Cloudy 10 - - - -
29/05:30am 11.5 W 12 17 1017.7 - 0.4 - Cloudy 10 - - - -
29/05:00am 11.2 W 7 12 1017.6 - 0.4 - Partly cloudy 10 - - - -
29/04:30am 11.5 W 9 14 1017.3 - 0.4 - Partly cloudy 10 - - - -
29/04:00am 11.4 W 9 14 1017.2 - 0.4 - Cloudy 10 - - - -
29/03:30am 11.0 W 9 13 1017.1 - 0.4 - Cloudy 10 - - - -
29/03:00am 11.3 W 10 16 1017.1 - 0.4 - Cloudy 10 - - - -
29/02:30am 11.5 W 9 16 1016.8 - 0.4 - Partly cloudy 10 - - - -
29/02:00am 11.3 W 9 14 1016.5 - 0.4 - Cloudy 10 - - - -
29/01:30am 11.2 W 10 15 1016.4 - 0.4 - Partly cloudy 10 - - - -
29/01:00am 11.1 W 9 13 1016.4 - 0.4 - Partly cloudy 10 - - - -
29/12:30am 11.2 W 8 13 1016.5 - 0.4 - Partly cloudy 10 - - - -
29/12:00am 11.3 W 9 14 1016.4 - 0.4 - Cloudy 10 - - - -
 
Date/Time
EST
Temp

°C
Wind Pressure Rain
since 9am
mm
Weather Cloud Vis
km
Sea
Height
m
Swell
Dir
 
Speed
knots
Gust
knots
hPa Trend Height
m
Period
s
Dir
28/11:30pm 11.6 W 11 15 1016.4 - 0.4 - Cloudy 10 - - - -
28/11:00pm 11.5 W 9 13 1016.3 - 0.4 - Partly cloudy 10 - - - -
28/10:30pm 11.5 W 10 14 1016.2 - 0.4 - Partly cloudy 10 - - - -
28/10:00pm 11.1 W 8 13 1016.1 - 0.4 - Partly cloudy 10 - - - -
28/09:30pm 10.9 W 8 13 1016.1 - 0.4 - - 10 - - - -
28/09:00pm 11.1 W 10 15 1016.1 - 0.4 - - 10 - - - -
28/08:30pm 11.3 WSW 11 17 1015.9 - 0.4 - Partly cloudy 10 - - - -
28/08:00pm 11.3 WSW 11 17 1015.7 - 0.4 - Partly cloudy 10 - - - -
28/07:30pm 11.6 WSW 14 21 1015.4 - 0.4 - Partly cloudy 10 - - - -
28/07:00pm 11.2 WSW 11 17 1015.1 - 0.4 - Partly cloudy 10 - - - -
28/06:30pm 11.5 WSW 12 18 1014.7 - 0.4 - Partly cloudy 10 - - - -
28/06:00pm 11.4 WSW 12 19 1014.4 - 0.4 - Cloudy 10 - - - -
28/05:30pm 11.7 SSW 11 16 1013.9 - 0.4 - Partly cloudy 10 - - - -
28/05:00pm 11.3 SSW 13 20 1013.6 - 0.4 - Partly cloudy 10 - - - -
28/04:30pm 12.4 SW 11 16 1013.1 - 0.2 - Partly cloudy 10 - - - -
28/04:00pm 12.0 SSW 11 17 1013.0 - 0.2 - Partly cloudy 10 - - - -
28/03:30pm 12.9 SSW 15 20 1012.7 - 0.0 - Partly cloudy 10 - - - -
28/03:00pm 13.8 SW 13 18 1012.2 - 0.0 - - 10 - - - -
28/02:30pm 13.8 SSW 12 17 1012.0 - 0.0 - Partly cloudy 10 - - - -
28/02:00pm 13.1 SSW 7 16 1011.6 - 0.0 - Partly cloudy 10 - - - -
28/01:30pm 12.4 SSW 7 9 1011.7 - 0.0 - Partly cloudy 10 - - - -
28/01:00pm 12.3 S 8 11 1011.5 - 0.0 - Cloudy 10 - - - -
28/12:30pm 11.5 S 11 15 1011.5 - 0.0 - Partly cloudy 10 - - - -
28/12:00pm 10.9 SSW 15 22 1011.7 - 0.0 - Cloudy 7 - - - -
28/11:30am 11.4 SW 13 19 1011.5 - 0.0 - Partly cloudy 10 - - - -
28/11:23am 11.4 SW 15 21 1011.5 - 0.0 - Partly cloudy 10 - - - -
28/11:00am 12.8 SSW 8 10 1011.3 - 0.0 - Partly cloudy 10 - - - -
28/10:30am 13.2 S 7 11 1011.4 - 0.0 - Partly cloudy 10 - - - -
28/10:00am 12.7 E 1 3 1011.2 - 0.0 - Partly cloudy 10 - - - -
28/09:30am 10.7 NNW 5 6 1011.0 - 0.0 - Partly cloudy 10 - - - -
28/09:00am 8.7 N 4 5 1010.6 - 0.4 - - 10 - - - -
28/08:30am 7.4 NNW 5 6 1010.5 - 0.4 - - 10 - - - -
28/08:00am 6.1 NNW 4 5 1010.3 - 0.4 - - 10 - - - -
28/07:30am 5.6 N 5 6 1010.0 - 0.4 - - 10 - - - -
28/07:00am 5.9 N 5 6 1009.8 - 0.4 - Partly cloudy 10 - - - -
28/06:30am 5.8 N 4 6 1009.3 - 0.2 - Partly cloudy 10 - - - -
28/06:00am 6.0 ENE 4 6 1009.2 - 0.2 Recent precip. Partly cloudy 10 - - - -
28/05:30am 6.8 NNW 4 7 1008.9 - 0.2 - Partly cloudy 9 - - - -
28/05:00am 5.9 NNW 5 6 1008.6 - 0.0 - Partly cloudy 10 - - - -
28/04:30am 5.2 NNW 4 5 1008.5 - 0.0 - - 10 - - - -
28/04:00am 5.5 N 3 4 1008.3 - 0.0 - - 8 - - - -
28/03:30am 5.6 N 3 4 1008.3 - 0.0 - - 8 - - - -
28/03:12am 5.5 CALM 0 0 1008.3 - 0.0 - - 10 - - - -
28/03:00am 5.7 CALM 0 0 1008.3 - 0.0 - Cloudy 4 - - - -
28/02:52am 5.9 CALM 0 0 1008.3 - 0.0 - Partly cloudy 5 - - - -
28/02:30am 6.1 CALM 0 0 1008.4 - 0.0 - Partly cloudy 10 - - - -
28/02:00am 6.0 CALM 0 0 1008.2 - 0.0 - - 10 - - - -
28/01:30am 7.1 CALM 0 0 1008.2 - 0.0 - Partly cloudy 10 - - - -
28/01:00am 7.6 N 3 3 1008.2 - 0.0 - Partly cloudy 10 - - - -
28/12:30am 7.6 CALM 0 0 1008.3 - 0.0 - Cloudy 10 - - - -
28/12:00am 7.4 N 1 3 1008.3 - 0.0 - Cloudy 10 - - - -
 
Date/Time
EST
Temp

°C
Wind Pressure Rain
since 9am
mm
Weather Cloud Vis
km
Sea
Height
m
Swell
Dir
 
Speed
knots
Gust
knots
hPa Trend Height
m
Period
s
Dir
27/11:30pm 7.5 CALM 0 0 1008.3 - 0.0 - Cloudy 10 - - - -
27/11:00pm 6.8 CALM 0 0 1008.2 - 0.0 - Cloudy 10 - - - -
27/10:30pm 6.0 CALM 0 0 1008.2 - 0.0 - Partly cloudy 10 - - - -
27/10:00pm 5.6 CALM 0 0 1008.2 - 0.0 - - 10 - - - -
27/09:30pm 6.5 CALM 0 0 1008.1 - 0.0 - - 10 - - - -
27/09:00pm 6.7 CALM 0 0 1008.0 - 0.0 - - 10 - - - -
27/08:30pm 7.1 CALM 0 0 1007.9 - 0.0 - - 10 - - - -
27/08:00pm 7.4 CALM 0 0 1007.8 - 0.0 - Partly cloudy 10 - - - -
27/07:30pm 7.8 NE 1 3 1007.7 - 0.0 - - 10 - - - -
27/07:00pm 8.3 CALM 0 0 1007.5 - 0.0 - - 10 - - - -
27/06:30pm 9.2 CALM 0 0 1007.3 - 0.0 - - 10 - - - -
27/06:00pm 10.0 CALM 0 0 1007.2 - 0.0 - - 10 - - - -
27/05:30pm 10.5 CALM 0 3 1007.0 - 0.0 - - 10 - - - -
27/05:00pm 12.0 SSW 3 4 1006.9 - 0.0 - - 10 - - - -
27/04:30pm 13.0 SW 5 7 1006.8 - 0.0 - - 10 - - - -
27/04:00pm 13.4 SW 5 7 1006.8 - 0.0 - - 10 - - - -
27/03:30pm 13.3 SW 7 9 1006.7 - 0.0 - - 10 - - - -
27/03:00pm 13.5 SW 8 11 1006.6 - 0.0 - - 10 - - - -
27/02:30pm 14.0 W 7 9 1006.5 - 0.0 - - 10 - - - -
27/02:00pm 13.7 W 9 12 1006.7 - 0.0 - - 10 - - - -
27/01:30pm 13.6 W 10 14 1006.8 - 0.0 - - 10 - - - -
27/01:00pm 13.5 W 11 15 1006.9 - 0.0 - - 10 - - - -
27/12:30pm 13.3 W 10 14 1007.1 - 0.0 - - 10 - - - -
27/12:00pm 13.4 W 9 14 1007.3 - 0.0 - Mostly clear 10 - - - -
27/11:30am 12.8 WNW 12 16 1007.7 - 0.0 - Partly cloudy 10 - - - -
27/11:00am 12.2 W 11 15 1007.9 - 0.0 - - 10 - - - -
27/10:30am 11.8 W 11 16 1007.9 - 0.0 - - 10 - - - -
27/10:00am 11.4 WNW 11 16 1008.0 - 0.0 - - 10 - - - -
27/09:30am 10.6 WNW 11 15 1007.9 - 0.0 - Partly cloudy 10 - - - -
27/09:00am 10.3 WNW 7 12 1007.6 - 10.0 - Mostly cloudy 10 - - - -
27/08:30am 10.2 WNW 10 14 1007.5 - 10.0 - Partly cloudy 10 - - - -
27/08:00am 9.9 W 11 16 1007.4 - 10.0 - Partly cloudy 10 - - - -
27/07:30am 10.1 WNW 9 17 1007.1 - 10.0 - Partly cloudy 10 - - - -
27/07:00am 9.8 WNW 7 13 1007.0 - 10.0 - Partly cloudy 10 - - - -
27/06:30am 10.2 W 9 14 1007.0 - 10.0 - Partly cloudy 10 - - - -
27/06:00am 10.1 W 10 15 1006.8 - 10.0 - Cloudy 10 - - - -
27/05:30am 10.2 WNW 9 13 1006.9 - 10.0 - Partly cloudy 10 - - - -
27/05:00am 10.2 WNW 10 16 1006.8 - 10.0 - Partly cloudy 10 - - - -
27/04:30am 10.1 WNW 8 12 1006.7 - 10.0 - Partly cloudy 10 - - - -
27/04:00am 10.1 W 9 14 1006.5 - 10.0 - Partly cloudy 10 - - - -
27/03:30am 10.1 W 9 13 1006.6 - 10.0 - Partly cloudy 10 - - - -
27/03:00am 9.8 WNW 7 14 1006.8 - 10.0 - Partly cloudy 10 - - - -
27/02:30am 10.1 WNW 9 15 1006.8 - 10.0 - Partly cloudy 10 - - - -
27/02:00am 10.0 W 7 10 1006.8 - 10.0 - Partly cloudy 10 - - - -
27/01:30am 10.3 W 8 13 1006.7 - 10.0 - Partly cloudy 10 - - - -

Other Formats:

Comma delimited format used in spreadsheet applications
http://www.bom.gov.au/fwo/IDV60701/IDV60701.94870.axf

JavaScript Object Notation format (JSON) in row-major order
http://www.bom.gov.au/fwo/IDV60701/IDV60701.94870.json